createdAt,value
2023-04-10T00:01:35.908Z,26.10
2023-04-10T00:04:05.346Z,25.70
2023-04-10T00:06:33.856Z,26.00
2023-04-10T00:09:02.231Z,26.90
2023-04-10T00:11:31.021Z,25.10
2023-04-10T00:13:59.198Z,23.10
2023-04-10T00:16:27.494Z,24.30
2023-04-10T00:18:55.747Z,23.50
2023-04-10T00:21:24.134Z,23.70
2023-04-10T00:23:52.763Z,24.70
2023-04-10T00:26:21.297Z,24.10
2023-04-10T00:28:49.777Z,24.00
2023-04-10T00:31:18.160Z,24.60
2023-04-10T00:33:46.330Z,21.80
2023-04-10T00:36:14.769Z,22.20
2023-04-10T00:38:43.399Z,22.50
2023-04-10T00:41:11.883Z,22.70
2023-04-10T00:43:40.155Z,20.80
2023-04-10T00:46:08.498Z,23.30
2023-04-10T00:48:37.428Z,24.30
2023-04-10T00:51:06.769Z,25.10
2023-04-10T00:53:35.095Z,24.90
2023-04-10T00:56:03.656Z,25.00
2023-04-10T00:58:31.863Z,22.70
2023-04-10T01:01:00.577Z,24.80
2023-04-10T01:03:29.108Z,24.30
2023-04-10T01:06:00.789Z,24.40
2023-04-10T01:09:01.631Z,26.20
2023-04-10T01:11:53.865Z,24.90
2023-04-10T01:14:43.814Z,26.70
2023-04-10T01:17:32.339Z,25.70
2023-04-10T01:20:13.478Z,28.60
2023-04-10T01:22:41.760Z,25.50
2023-04-10T01:25:34.316Z,24.70
2023-04-10T01:28:06.008Z,24.70
2023-04-10T01:30:36.753Z,24.90
2023-04-10T01:33:10.090Z,21.90
2023-04-10T01:35:40.169Z,25.70
2023-04-10T01:38:09.720Z,22.90
2023-04-10T01:40:40.294Z,22.70
2023-04-10T01:43:11.745Z,22.80
2023-04-10T01:45:50.146Z,21.30
2023-04-10T01:48:19.314Z,23.80
2023-04-10T01:50:49.327Z,23.10
2023-04-10T01:53:18.743Z,23.90
2023-04-10T01:55:48.237Z,24.00
2023-04-10T01:58:17.746Z,25.90
2023-04-10T02:00:46.021Z,23.60
2023-04-10T02:03:15.280Z,26.80
2023-04-10T02:05:57.114Z,24.90
2023-04-10T02:08:34.616Z,26.30
2023-04-10T02:11:08.105Z,27.10
2023-04-10T02:13:39.138Z,26.90
2023-04-10T02:16:09.274Z,27.30
2023-04-10T02:18:41.338Z,24.80
2023-04-10T02:21:09.715Z,27.50
2023-04-10T02:23:38.508Z,29.00
2023-04-10T02:26:08.730Z,25.80
2023-04-10T02:28:40.492Z,25.50
2023-04-10T02:31:08.828Z,25.50
2023-04-10T02:33:37.042Z,26.50
2023-04-10T02:36:06.025Z,27.20
2023-04-10T02:38:34.231Z,25.60
2023-04-10T02:41:03.094Z,24.00
2023-04-10T02:43:31.266Z,25.90
2023-04-10T02:46:00.173Z,25.20
2023-04-10T02:48:29.769Z,22.40
2023-04-10T02:51:01.016Z,24.10
2023-04-10T02:53:30.326Z,23.40
2023-04-10T02:56:01.160Z,23.00
2023-04-10T02:58:32.710Z,24.40
2023-04-10T03:01:02.124Z,25.40
2023-04-10T03:03:40.325Z,25.80
2023-04-10T03:06:10.233Z,26.50
2023-04-10T03:08:39.025Z,25.00
2023-04-10T03:11:08.942Z,28.70
2023-04-10T03:13:37.113Z,27.50
2023-04-10T03:16:06.137Z,28.20
2023-04-10T03:18:35.005Z,28.00
2023-04-10T03:21:03.788Z,24.20
2023-04-10T03:23:32.426Z,28.30
2023-04-10T03:26:00.953Z,24.70
2023-04-10T03:28:30.972Z,26.70
2023-04-10T03:30:59.264Z,26.90
2023-04-10T03:33:28.591Z,29.60
2023-04-10T03:35:57.566Z,29.40
2023-04-10T03:38:27.270Z,31.20
2023-04-10T03:40:55.936Z,28.90
2023-04-10T03:43:25.900Z,30.30
2023-04-10T03:45:54.951Z,28.90
2023-04-10T03:48:24.354Z,28.50
2023-04-10T03:50:52.840Z,29.30
2023-04-10T03:53:21.215Z,25.90
2023-04-10T03:55:49.696Z,25.80
2023-04-10T03:58:19.501Z,25.90
2023-04-10T04:00:47.880Z,28.50
2023-04-10T04:03:23.452Z,24.20
2023-04-10T04:05:52.523Z,24.90
2023-04-10T04:08:36.491Z,26.70
2023-04-10T04:11:07.724Z,25.50
2023-04-10T04:13:54.578Z,28.50
2023-04-10T04:16:46.105Z,30.60
2023-04-10T04:19:40.750Z,29.40
2023-04-10T04:22:13.899Z,25.40
2023-04-10T04:25:00.755Z,27.20
2023-04-10T04:27:52.783Z,35.40
2023-04-10T04:30:53.520Z,33.50
2023-04-10T04:33:27.944Z,25.80
2023-04-10T04:36:28.985Z,27.90
2023-04-10T04:39:16.206Z,29.40
2023-04-10T04:42:04.759Z,55.50
2023-04-10T04:44:52.086Z,34.50
2023-04-10T04:47:39.574Z,38.60
2023-04-10T04:50:09.157Z,32.50
2023-04-10T04:55:44.992Z,28.50
2023-04-10T04:58:33.755Z,30.30
2023-04-10T05:01:28.098Z,24.50
2023-04-10T05:04:16.936Z,22.40
2023-04-10T05:07:20.608Z,23.10
2023-04-10T05:09:48.885Z,22.10
2023-04-10T05:12:42.138Z,22.10
2023-04-10T05:15:29.289Z,23.40
2023-04-10T05:18:26.861Z,21.30
2023-04-10T05:21:03.595Z,23.50
2023-04-10T05:23:40.588Z,24.30
2023-04-10T05:26:29.335Z,24.60
2023-04-10T05:29:17.781Z,22.10
2023-04-10T05:31:57.526Z,23.20
2023-04-10T05:37:23.776Z,23.40
2023-04-10T05:40:03.629Z,25.10
2023-04-10T05:42:43.378Z,23.20
2023-04-10T05:45:25.066Z,24.20
2023-04-10T05:48:15.877Z,23.30
2023-04-10T05:51:04.873Z,24.30
2023-04-10T05:53:38.856Z,23.60
2023-04-10T05:56:32.721Z,23.50
2023-04-10T05:59:20.045Z,22.60
2023-04-10T06:02:21.960Z,22.60
2023-04-10T06:04:51.742Z,20.40
2023-04-10T06:07:20.511Z,21.00
2023-04-10T06:09:49.013Z,23.00
2023-04-10T06:12:17.483Z,21.60
2023-04-10T06:14:47.320Z,21.20
2023-04-10T06:17:21.823Z,21.80
2023-04-10T06:19:50.284Z,21.20
2023-04-10T06:22:18.871Z,22.10
2023-04-10T06:24:47.258Z,21.60
2023-04-10T06:27:15.936Z,22.30
2023-04-10T06:29:44.521Z,20.90
2023-04-10T06:32:13.013Z,20.00
2023-04-10T06:34:42.003Z,20.10
2023-04-10T06:37:10.994Z,22.10
2023-04-10T06:39:39.581Z,20.80
2023-04-10T06:42:07.970Z,21.40
2023-04-10T06:47:24.335Z,21.00
2023-04-10T06:49:53.059Z,19.40
2023-04-10T06:52:21.654Z,21.30
2023-04-10T06:54:49.920Z,19.60
2023-04-10T06:57:18.948Z,19.20
2023-04-10T06:59:47.190Z,20.20
2023-04-10T07:04:43.652Z,19.10
2023-04-10T07:07:13.510Z,19.30
2023-04-10T07:09:42.261Z,19.90
2023-04-10T07:12:10.622Z,19.50
2023-04-10T07:14:39.000Z,18.80
2023-04-10T07:17:07.392Z,18.70
2023-04-10T07:19:36.180Z,19.10
2023-04-10T07:22:04.444Z,17.80
2023-04-10T07:24:33.030Z,18.10
2023-04-10T07:27:01.822Z,17.00
2023-04-10T07:29:31.328Z,17.20
2023-04-10T07:31:59.718Z,31.40
2023-04-10T07:34:28.196Z,18.20
2023-04-10T07:36:56.873Z,19.70
2023-04-10T07:39:25.264Z,18.40
2023-04-10T07:41:54.960Z,18.10
2023-04-10T07:44:23.346Z,17.50
2023-04-10T07:46:52.536Z,18.50
2023-04-10T07:49:20.847Z,17.50
2023-04-10T07:51:49.100Z,17.30
2023-04-10T07:54:17.267Z,17.80
2023-04-10T07:56:45.752Z,16.90
2023-04-10T07:59:14.133Z,17.00
2023-04-10T08:01:42.341Z,18.60
2023-04-10T08:04:11.286Z,17.80
2023-04-10T08:06:39.712Z,19.50
2023-04-10T08:09:07.850Z,17.10
2023-04-10T08:11:38.244Z,17.60
2023-04-10T08:14:07.455Z,17.30
2023-04-10T08:16:37.121Z,17.90
2023-04-10T08:19:05.662Z,18.20
2023-04-10T08:21:34.043Z,18.60
2023-04-10T08:24:04.071Z,18.40
2023-04-10T08:26:32.678Z,16.90
2023-04-10T08:29:01.025Z,17.10
2023-04-10T08:31:30.044Z,17.70
2023-04-10T08:33:59.047Z,14.90
2023-04-10T08:36:28.118Z,16.50
2023-04-10T08:38:56.380Z,16.00
2023-04-10T08:41:24.685Z,17.50
2023-04-10T08:43:53.077Z,18.30
2023-04-10T08:46:24.744Z,16.20
2023-04-10T08:49:03.859Z,17.10
2023-04-10T08:51:38.188Z,17.10
2023-04-10T08:54:08.313Z,18.50
2023-04-10T08:56:39.042Z,17.00
2023-04-10T08:59:08.301Z,15.30
2023-04-10T09:01:36.910Z,16.70
2023-04-10T09:04:05.935Z,15.70
2023-04-10T09:06:34.255Z,14.70
2023-04-10T09:09:02.995Z,15.40
2023-04-10T09:12:01.242Z,15.20
2023-04-10T09:17:16.469Z,15.30
2023-04-10T09:19:46.824Z,14.30
2023-04-10T09:22:16.395Z,14.00
2023-04-10T09:24:46.640Z,13.90
2023-04-10T09:27:37.600Z,14.40
2023-04-10T09:30:07.291Z,16.00
2023-04-10T09:32:38.796Z,13.60
2023-04-10T09:35:08.693Z,12.10
2023-04-10T09:37:37.963Z,21.30
2023-04-10T09:40:06.993Z,20.50
2023-04-10T09:42:37.726Z,10.10
2023-04-10T09:45:06.677Z,11.20
2023-04-10T09:47:34.989Z,13.00
2023-04-10T09:50:03.845Z,18.90
2023-04-10T09:52:35.080Z,10.80
2023-04-10T09:55:05.414Z,11.60
2023-04-10T09:57:35.058Z,10.90
2023-04-10T10:00:09.602Z,9.80
2023-04-10T10:02:42.352Z,10.90
2023-04-10T10:05:11.683Z,11.20
2023-04-10T10:07:40.135Z,7.80
2023-04-10T10:10:11.556Z,8.50
2023-04-10T10:12:50.790Z,10.20
2023-04-10T10:15:50.006Z,9.00
2023-04-10T10:18:27.725Z,10.10
2023-04-10T10:20:57.125Z,9.10
2023-04-10T10:23:26.705Z,9.50
2023-04-10T10:25:56.677Z,10.60
2023-04-10T10:28:28.306Z,9.80
2023-04-10T10:30:56.965Z,10.30
2023-04-10T10:33:26.476Z,10.30
2023-04-10T10:36:00.608Z,10.10
2023-04-10T10:38:28.980Z,8.90
2023-04-10T10:41:13.114Z,8.60
2023-04-10T10:44:02.086Z,10.10
2023-04-10T10:46:43.645Z,9.40
2023-04-10T10:49:12.111Z,10.20
2023-04-10T10:51:51.410Z,10.90
2023-04-10T10:54:34.564Z,9.80
2023-04-10T10:57:06.677Z,8.90
2023-04-10T10:59:55.852Z,8.70
2023-04-10T11:02:24.674Z,8.40
2023-04-10T11:04:53.011Z,8.20
2023-04-10T11:07:21.899Z,9.40
2023-04-10T11:09:53.763Z,7.50
2023-04-10T11:12:26.331Z,6.60
2023-04-10T11:15:03.383Z,9.30
2023-04-10T11:17:52.652Z,8.60
2023-04-10T11:20:27.506Z,7.80
2023-04-10T11:23:12.074Z,8.10
2023-04-10T11:25:52.442Z,8.20
2023-04-10T11:28:40.893Z,7.60
2023-04-10T11:31:23.617Z,9.00
2023-04-10T11:33:58.845Z,8.30
2023-04-10T11:36:27.743Z,8.70
2023-04-10T11:39:00.104Z,9.40
2023-04-10T11:41:30.825Z,7.30
2023-04-10T11:44:01.411Z,8.60
2023-04-10T11:46:31.345Z,7.70
2023-04-10T11:49:01.728Z,9.50
2023-04-10T11:51:31.718Z,9.10
2023-04-10T11:54:20.480Z,10.30
2023-04-10T11:56:58.687Z,8.30
2023-04-10T11:59:28.208Z,8.50
2023-04-10T12:02:12.026Z,8.00
2023-04-10T12:04:41.966Z,8.00
2023-04-10T12:07:11.253Z,8.30
2023-04-10T12:09:39.629Z,8.80
2023-04-10T12:12:08.500Z,7.70
2023-04-10T12:14:39.594Z,9.30
2023-04-10T12:17:10.551Z,8.20
2023-04-10T12:19:41.542Z,8.60
2023-04-10T12:22:13.093Z,7.90
2023-04-10T12:24:43.775Z,8.00
2023-04-10T12:27:26.970Z,8.40
2023-04-10T12:29:57.226Z,8.50
2023-04-10T12:32:27.738Z,7.20
2023-04-10T12:34:57.945Z,7.90
2023-04-10T12:37:49.367Z,7.90
2023-04-10T12:40:18.358Z,7.30
2023-04-10T12:42:47.460Z,8.20
2023-04-10T12:45:15.774Z,8.00
2023-04-10T12:47:51.881Z,7.90
2023-04-10T12:50:24.464Z,8.00
2023-04-10T12:53:05.028Z,8.60
2023-04-10T12:55:33.414Z,8.00
2023-04-10T12:58:20.332Z,8.00
2023-04-10T13:00:49.934Z,8.50
2023-04-10T13:03:18.564Z,8.60
2023-04-10T13:05:47.270Z,7.90
2023-04-10T13:08:15.479Z,9.00
2023-04-10T13:10:43.980Z,7.80
2023-04-10T13:13:13.248Z,8.70
2023-04-10T13:15:41.868Z,9.90
2023-04-10T13:18:13.620Z,7.10
2023-04-10T13:20:42.279Z,9.50
2023-04-10T13:23:10.511Z,9.20
2023-04-10T13:25:40.771Z,8.90
2023-04-10T13:28:12.010Z,8.00
2023-04-10T13:30:41.841Z,8.30
2023-04-10T13:33:10.484Z,8.90
2023-04-10T13:35:40.326Z,8.40
2023-04-10T13:38:09.731Z,7.40
2023-04-10T13:40:38.130Z,8.30
2023-04-10T13:43:06.807Z,7.50
2023-04-10T13:45:35.598Z,9.10
2023-04-10T13:48:04.237Z,9.10
2023-04-10T13:50:33.976Z,8.50
2023-04-10T13:53:02.391Z,8.60
2023-04-10T13:55:30.803Z,9.20
2023-04-10T13:57:59.237Z,9.80
2023-04-10T14:00:27.935Z,7.70
2023-04-10T14:02:56.578Z,8.50
2023-04-10T14:05:24.989Z,8.70
2023-04-10T14:07:57.059Z,7.40
2023-04-10T14:10:25.337Z,8.00
2023-04-10T14:12:53.707Z,8.10
2023-04-10T14:15:21.891Z,12.20
2023-04-10T14:17:50.174Z,9.10
2023-04-10T14:20:18.335Z,11.00
2023-04-10T14:22:47.974Z,11.10
2023-04-10T14:25:16.836Z,9.00
2023-04-10T14:27:45.818Z,10.40
2023-04-10T14:30:14.197Z,9.80
2023-04-10T14:32:44.018Z,10.00
2023-04-10T14:35:12.334Z,9.20
2023-04-10T14:37:42.614Z,11.40
2023-04-10T14:40:11.201Z,9.80
2023-04-10T14:42:39.475Z,9.30
2023-04-10T14:45:08.703Z,8.40
2023-04-10T14:47:36.984Z,9.10
2023-04-10T14:50:06.356Z,8.00
2023-04-10T14:52:34.487Z,8.70
2023-04-10T14:55:03.115Z,11.10
2023-04-10T14:57:31.603Z,8.90
2023-04-10T15:00:01.609Z,12.40
2023-04-10T15:02:30.789Z,11.30
2023-04-10T15:04:59.145Z,8.10
2023-04-10T15:07:30.649Z,9.10
2023-04-10T15:09:59.247Z,9.80
2023-04-10T15:12:27.609Z,10.00
2023-04-10T15:14:55.783Z,10.30
2023-04-10T15:17:24.505Z,10.40
2023-04-10T15:19:52.845Z,9.00
2023-04-10T15:22:21.023Z,9.40
2023-04-10T15:24:50.863Z,10.10
2023-04-10T15:27:21.519Z,8.80
2023-04-10T15:29:49.751Z,9.70
2023-04-10T15:32:18.510Z,9.90
2023-04-10T15:34:46.807Z,9.90
2023-04-10T15:37:15.185Z,10.90
2023-04-10T15:39:43.663Z,10.10
2023-04-10T15:42:11.843Z,9.80
2023-04-10T15:44:40.060Z,9.50
2023-04-10T15:47:08.285Z,9.50
2023-04-10T15:49:38.681Z,9.10
2023-04-10T15:52:07.560Z,8.40
2023-04-10T15:54:36.036Z,8.50
2023-04-10T15:57:04.386Z,9.20
2023-04-10T15:59:33.696Z,10.80
2023-04-10T16:02:02.439Z,9.60
2023-04-10T16:04:31.519Z,10.90
2023-04-10T16:07:00.036Z,11.10
2023-04-10T16:09:28.881Z,8.80
2023-04-10T16:11:57.955Z,9.50
2023-04-10T16:14:26.407Z,10.50
2023-04-10T16:16:54.886Z,12.30
2023-04-10T16:19:23.832Z,12.20
2023-04-10T16:21:52.071Z,13.80
2023-04-10T16:24:20.328Z,15.10
2023-04-10T16:26:50.080Z,13.50
2023-04-10T16:29:20.583Z,16.10
2023-04-10T16:31:48.975Z,14.40
2023-04-10T16:34:17.433Z,22.10
2023-04-10T16:36:45.704Z,15.30
2023-04-10T16:39:13.987Z,17.10
2023-04-10T16:41:42.199Z,17.30
2023-04-10T16:44:10.637Z,21.70
2023-04-10T16:46:39.008Z,20.90
2023-04-10T16:49:07.292Z,21.10
2023-04-10T16:51:35.476Z,18.00
2023-04-10T16:54:04.085Z,27.00
2023-04-10T16:56:33.047Z,19.80
2023-04-10T16:59:01.322Z,19.70
2023-04-10T17:01:29.539Z,18.10
2023-04-10T17:03:57.833Z,46.50
2023-04-10T17:06:27.140Z,20.70
2023-04-10T17:08:55.650Z,17.50
2023-04-10T17:11:24.144Z,16.70
2023-04-10T17:13:52.621Z,18.00
2023-04-10T17:16:20.914Z,15.50
2023-04-10T17:18:50.402Z,18.20
2023-04-10T17:21:18.891Z,28.40
2023-04-10T17:23:47.064Z,16.70
2023-04-10T17:26:16.977Z,16.70
2023-04-10T17:28:46.518Z,18.10
2023-04-10T17:31:17.207Z,17.60
2023-04-10T17:33:45.696Z,31.50
2023-04-10T17:36:14.946Z,29.80
2023-04-10T17:38:43.688Z,21.30
2023-04-10T17:41:15.210Z,19.10
2023-04-10T17:43:43.519Z,19.50
2023-04-10T17:46:15.538Z,18.50
2023-04-10T17:48:44.740Z,18.40
2023-04-10T17:51:13.974Z,17.70
2023-04-10T17:53:42.370Z,18.90
2023-04-10T17:56:21.152Z,17.60
2023-04-10T17:58:49.459Z,16.10
2023-04-10T18:01:26.126Z,16.40
2023-04-10T18:03:54.484Z,18.20
2023-04-10T18:06:22.806Z,17.70
2023-04-10T18:08:50.971Z,16.80
2023-04-10T18:11:19.241Z,18.30
2023-04-10T18:13:47.929Z,17.60
2023-04-10T18:16:17.617Z,16.20
2023-04-10T18:18:46.331Z,18.80
2023-04-10T18:21:15.617Z,17.70
2023-04-10T18:23:44.767Z,16.70
2023-04-10T18:26:13.522Z,18.40
2023-04-10T18:28:43.318Z,18.30
2023-04-10T18:31:14.863Z,17.60
2023-04-10T18:33:43.506Z,19.70
2023-04-10T18:36:14.191Z,17.80
2023-04-10T18:38:44.138Z,15.70
2023-04-10T18:41:15.361Z,17.00
2023-04-10T18:43:48.828Z,17.50
2023-04-10T18:46:28.258Z,16.30
2023-04-10T18:48:56.801Z,18.70
2023-04-10T18:51:25.188Z,16.70
2023-04-10T18:53:53.895Z,17.50
2023-04-10T18:56:25.053Z,18.90
2023-04-10T18:58:53.219Z,19.20
2023-04-10T19:01:21.456Z,18.60
2023-04-10T19:03:54.828Z,17.20
2023-04-10T19:06:24.136Z,19.10
2023-04-10T19:08:52.338Z,19.60
2023-04-10T19:11:21.345Z,21.00
2023-04-10T19:13:49.700Z,18.50
2023-04-10T19:16:19.683Z,21.80
2023-04-10T19:18:48.276Z,20.10
2023-04-10T19:21:16.554Z,20.70
2023-04-10T19:23:45.154Z,21.50
2023-04-10T19:26:14.454Z,21.80
2023-04-10T19:28:43.505Z,21.00
2023-04-10T19:31:11.930Z,19.90
2023-04-10T19:33:40.081Z,21.50
2023-04-10T19:36:08.827Z,19.40
2023-04-10T19:38:37.149Z,21.80
2023-04-10T19:41:13.729Z,19.10
2023-04-10T19:43:42.141Z,20.80
2023-04-10T19:46:20.979Z,19.70
2023-04-10T19:48:49.621Z,20.80
2023-04-10T19:51:18.203Z,19.90
2023-04-10T19:53:46.569Z,18.80
2023-04-10T19:56:16.689Z,21.00
2023-04-10T19:58:55.997Z,19.10
2023-04-10T20:01:24.730Z,20.00
2023-04-10T20:03:53.555Z,20.80
2023-04-10T20:06:22.504Z,24.40
2023-04-10T20:08:51.178Z,21.10
2023-04-10T20:11:19.252Z,23.60
2023-04-10T20:13:47.742Z,22.60
2023-04-10T20:16:16.626Z,20.30
2023-04-10T20:18:44.898Z,21.00
2023-04-10T20:21:12.956Z,20.40
2023-04-10T20:23:41.051Z,22.30
2023-04-10T20:26:13.163Z,19.70
2023-04-10T20:28:41.798Z,19.80
2023-04-10T20:31:11.110Z,21.30
2023-04-10T20:33:39.577Z,20.20
2023-04-10T20:36:08.396Z,21.60
2023-04-10T20:38:37.052Z,19.40
2023-04-10T20:41:05.664Z,19.10
2023-04-10T20:43:34.451Z,18.90
2023-04-10T20:46:08.101Z,20.40
2023-04-10T20:48:38.120Z,18.70
2023-04-10T20:51:07.323Z,17.50
2023-04-10T20:53:35.727Z,18.90
2023-04-10T20:56:06.202Z,18.60
2023-04-10T20:58:34.823Z,18.50
2023-04-10T21:01:03.047Z,19.10
2023-04-10T21:03:32.342Z,18.80
2023-04-10T21:06:04.384Z,18.00
2023-04-10T21:08:32.676Z,19.00
2023-04-10T21:11:01.116Z,19.90
2023-04-10T21:13:29.521Z,20.50
2023-04-10T21:15:57.912Z,20.90
2023-04-10T21:18:26.386Z,19.80
2023-04-10T21:20:54.759Z,23.00
2023-04-10T21:23:22.803Z,20.10
2023-04-10T21:25:54.440Z,21.30
2023-04-10T21:28:22.637Z,21.80
2023-04-10T21:30:50.764Z,22.90
2023-04-10T21:33:19.016Z,23.90
2023-04-10T21:35:48.098Z,23.70
2023-04-10T21:38:16.281Z,23.70
2023-04-10T21:40:51.589Z,23.80
2023-04-10T21:43:22.780Z,24.70
2023-04-10T21:45:51.197Z,23.50
2023-04-10T21:48:22.398Z,23.90
2023-04-10T21:50:51.424Z,24.40
2023-04-10T21:53:19.732Z,24.50
2023-04-10T21:55:47.884Z,24.00
2023-04-10T21:58:16.467Z,25.70
2023-04-10T22:00:47.384Z,26.80
2023-04-10T22:03:20.549Z,23.80
2023-04-10T22:05:50.571Z,23.50
2023-04-10T22:08:20.311Z,22.90
2023-04-10T22:10:48.666Z,23.00
2023-04-10T22:13:29.483Z,25.00
2023-04-10T22:15:59.986Z,22.60
2023-04-10T22:18:28.346Z,25.40
2023-04-10T22:20:56.819Z,23.20
2023-04-10T22:23:25.406Z,24.80
2023-04-10T22:25:53.885Z,26.00
2023-04-10T22:28:22.575Z,25.40
2023-04-10T22:30:50.952Z,22.50
2023-04-10T22:33:19.245Z,23.00
2023-04-10T22:35:47.460Z,25.80
2023-04-10T22:38:15.788Z,23.10
2023-04-10T22:40:44.364Z,23.40
2023-04-10T22:43:13.357Z,26.50
2023-04-10T22:45:42.249Z,25.10
2023-04-10T22:48:10.465Z,25.40
2023-04-10T22:50:38.807Z,27.50
2023-04-10T22:53:07.293Z,24.60
2023-04-10T22:55:38.331Z,24.90
2023-04-10T22:58:07.538Z,22.00
2023-04-10T23:00:36.003Z,22.30
2023-04-10T23:03:07.029Z,24.20
2023-04-10T23:05:35.382Z,21.30
2023-04-10T23:08:03.531Z,22.80
2023-04-10T23:10:31.774Z,22.40
2023-04-10T23:13:00.048Z,23.70
2023-04-10T23:15:28.228Z,24.90
2023-04-10T23:17:57.549Z,25.10
2023-04-10T23:20:26.627Z,26.80
2023-04-10T23:22:57.906Z,24.70
2023-04-10T23:25:26.136Z,26.50
2023-04-10T23:27:54.409Z,31.10
2023-04-10T23:30:22.535Z,31.80
2023-04-10T23:32:50.830Z,29.50
2023-04-10T23:35:19.037Z,29.30
2023-04-10T23:37:47.326Z,29.20
2023-04-10T23:40:15.910Z,27.60
2023-04-10T23:42:44.561Z,30.80
2023-04-10T23:45:13.649Z,27.50
2023-04-10T23:47:41.892Z,26.90
2023-04-10T23:50:10.860Z,25.50
2023-04-10T23:52:39.309Z,26.00
2023-04-10T23:55:07.978Z,26.80
2023-04-10T23:57:36.044Z,26.70
